Lynradar: storm image Ingen tordenbyger registrert..



Vårt webkamera mer informasjon My webcam


Kamera på Foreneset mer informasjon webcam on foreneset


Nedbørsradar  rain snow radar


Besøk vår andre værside:

Alternativ webside

iphone versjon

Nettbrett versjon

Foreneset
verstasjon



Ikke nødvendig med spesiell oppmerksomhet.    Det er ingen advarsler

Select another period ( hide this area )

enheter Periode Custom range Directly to
Metric Engelsk Begge
Daglig Weekly Månedlig Årlig
use both date-selectors for a custom range
previous Dag
With this date

WeatherUnderground graphs for this period ( click here )


Daglig sammendrag for onsdag 29 Januar 2020
Tid Temp. ( °C ) Dew pt. ( °C ) Vind ( km/h ) fra Vindkast ( km/h ) Trykk ( hPa ) Humid.( % ) Rainrate ( cm ) Sol ( W/m2 )
Max5,4 4,7 14,8 SSØ ( 334/1020 ) 18,5 992,3 99 1,00 220
Snitt3,2 2,9 3,7 Sør #64/273 5,4 987,8 98 0,60 59 #93/273
Min1,9 1,6 -   0,0 983,2 94 -  
Daglig Tabular details for onsdag 29 Januar 2020
Tid Temp. ( °C ) Dew pt. ( °C ) Vind ( km/h ) fra Vindkast ( km/h ) Trykk ( hPa ) Humid.( % ) Rainrate ( cm ) Sol ( W/m2 )
00:00 2,9 2,2 5,5 NNV 9,3 983,2 95 1,00 -
00:05 2,9 2,2 6,4 NNV 9,3 983,2 95 1,00 -
00:10 2,9 2,2 3,7 NNV 7,4 983,2 95 0,80 -
00:15 2,8 2,1 3,9 NNV 7,4 983,2 95 0,80 -
00:20 2,8 2,1 3,7 NNV 5,6 983,2 95 0,80 -
00:25 2,8 2,1 5,5 NNV 9,3 983,3 95 0,80 -
00:30 2,8 2,2 4,8 NNV 5,6 983,3 96 0,60 -
00:35 2,8 2,2 2,1 NNV 3,7 983,3 96 0,60 -
00:40 2,8 2,2 3,5 NNV 5,6 983,3 96 0,40 -
00:45 2,8 2,2 2,3 NNV 3,7 983,3 96 0,60 -
00:50 2,8 2,2 4,2 NNV 7,4 983,3 96 0,60 -
00:55 2,8 2,2 0,2 NNV 1,9 983,3 96 0,60 -
01:00 2,7 2,2 0,2 NNV 1,9 983,2 96 0,40 -
01:05 2,7 2,2   Stille   983,3 96 0,40 -
01:10 2,7 2,1   Stille   983,3 96 0,40 -
01:15 2,6 2,1 0,6 NNV 3,7 983,3 96 0,20 -
01:20 2,6 2,1 1,9 NNV 5,6 983,4 96 0,20 -
01:25 2,6 2,2 4,0 NNV 5,6 983,3 97 0,20 -
01:30 2,6 2,2 3,9 Nord 5,6 983,3 97 0,20 -
01:35 2,6 2,2 3,4 Nord 5,6 983,3 97 0,20 -
01:40 2,6 2,1 3,7 Nord 5,6 983,3 97 0,20 -
01:45 2,6 2,1 3,4 Nord 5,1 983,4 97 - -
01:50 2,6 2,2 4,5 Nord 5,6 983,4 97 - -
01:55 2,6 2,2 1,1 Nord 5,6 983,4 97 - -
02:00 2,7 2,2 2,9 Nord 3,7 983,4 97 - -
02:05 2,6 2,2 3,7 Nord 5,6 983,4 97 - -
02:10 2,4 2,0 3,9 Nord 5,6 983,4 97 - -
02:15 2,6 2,2 5,5 ØNØ 7,4 983,5 97 - -
02:20 2,6 2,2 4,2 ØNØ 5,6 983,6 97 - -
02:25 2,6 2,2 3,7 ØNØ 5,6 983,6 97 - -
02:30 2,6 2,2 2,1 ØNØ 3,7 983,7 97 - -
02:35 2,6 2,2 1,9 ØNØ 3,7 983,7 97 - -
02:40 2,6 2,2 2,9 ØNØ 5,6 983,7 97 - -
02:45 2,6 2,2 3,5 ØNØ 5,6 983,9 97 0,20 -
02:50 2,7 2,2 4,8 ØNØ 7,4 983,9 97 0,20 -
02:55 2,7 2,2 6,4 ØSØ 7,4 983,9 97 0,20 -
03:00 2,7 2,2 3,1 ØSØ 5,6 984,0 97 0,20 -
03:05 2,7 2,3 1,0 ØSØ 3,7 984,0 97 0,20 -
03:10 2,7 2,2 3,1 ØSØ 5,6 984,1 97 0,20 -
03:15 2,6 2,3 3,1 ØSØ 5,6 984,1 98 0,20 -
03:20 2,7 2,4 3,7 ØSØ 5,6 984,1 98 0,40 -
03:25 2,7 2,4 3,4 ØSØ 5,6 984,1 98 0,40 -
03:30 2,6 2,3 4,3 ØSØ 5,6 984,2 98 0,40 -
03:35 2,6 2,3 4,2 ØSØ 5,6 984,2 98 0,40 -
03:40 2,6 2,3 4,0 ØSØ 5,6 984,2 98 0,40 -
03:45 2,6 2,3 0,2 ØSØ 1,9 984,3 98 0,20 -
03:50 2,6 2,3 0,5 ØSØ 3,4 984,2 98 0,20 -
03:55 2,6 2,3 3,7 ØSØ 5,6 984,3 98 0,20 -
04:00 2,6 2,3 4,3 ØSØ 5,6 984,3 98 0,20 -
04:05 2,6 2,3   Stille   984,3 98 0,40 -
04:10 2,6 2,3 2,1 ØSØ 3,7 984,3 98 0,40 -
04:15 2,5 2,2 0,5 ØSØ 3,4 984,3 98 0,40 -
04:20 2,5 2,2   Stille   984,4 98 0,20 -
04:25 2,5 2,2 2,6 ØSØ 3,7 984,5 98 0,20 -
04:30 2,5 2,2 4,8 7,4 984,6 98 0,20 -
04:35 2,4 2,2 3,2 5,6 984,6 98 0,20 -
04:40 2,4 2,2 2,4 3,7 984,7 98 0,20 -
04:45 2,4 2,2 2,6 3,7 984,6 98 0,20 -
04:50 2,4 2,2 3,4 3,7 984,7 98 0,20 -
04:55 2,4 2,2 2,9 3,7 984,8 98 0,20 -
05:00 2,4 2,1 0,6 1,9 984,8 98 0,40 -
05:05 2,4 2,1 1,0 3,7 984,8 98 0,20 -
05:10 2,4 2,1 2,7 3,7 984,8 98 0,20 -
05:15 2,4 2,1 3,4 5,6 984,8 98 0,20 -
05:20 2,4 2,1 5,1 7,4 984,9 98 0,20 -
05:25 2,4 2,1 1,0 3,7 984,9 98 0,20 -
05:30 2,4 2,1 2,7 5,6 985,0 98 0,20 -
05:35 2,4 2,1 4,2 5,6 985,1 98 0,20 -
05:40 2,4 2,1 4,3 5,6 985,0 98 0,40 -
05:45 2,4 2,1 2,6 5,6 985,1 98 0,40 -
05:50 2,4 2,1 0,5 1,9 985,2 98 0,40 -
05:55 2,4 2,2   Stille   985,3 98 0,40 -
06:00 2,4 2,2 4,2 7,4 985,3 98 0,40 -
06:05 2,4 2,2 2,4 3,7 985,3 98 0,40 -
06:10 2,4 2,2 6,0 7,4 985,4 98 0,40 -
06:15 2,5 2,2 5,3 7,4 985,4 98 0,40 -
06:20 2,5 2,2 4,8 SSØ 7,4 985,4 98 0,40 -
06:25 2,6 2,3 4,5 SSØ 7,4 985,4 98 0,40 -
06:30 2,6 2,3 4,5 SSØ 7,4 985,4 98 0,40 -
06:35 2,6 2,3   Stille   985,5 98 0,40 -
06:40 2,6 2,3   Stille   985,5 98 0,20 -
06:45 2,6 2,3   Stille   985,6 98 0,20 -
06:50 2,6 2,3   Stille 1,6 985,6 98 0,20 -
06:55 2,5 2,2   Stille   985,6 98 0,20 -
07:00 2,7 2,4 0,2 SSØ 1,9 985,7 98 - -
07:05 2,7 2,4 0,5 SSØ 1,9 985,7 98 - -
07:10 2,7 2,6 1,4 Sør 3,7 985,7 99 - -
07:15 2,8 2,7 3,1 SSV 5,6 985,8 99 - -
07:20 3,0 2,8 3,7 SSV 7,4 985,7 99 - -
07:25 3,2 3,0 4,0 SV 5,6 985,8 99 - -
07:30 3,3 3,1 4,8 SV 8,4 985,9 99 0,20 -
07:35 3,3 3,1 1,4 SV 1,9 985,9 99 0,20 -
07:40 3,4 3,2   Stille 1,9 985,9 99 0,20 -
07:45 3,3 3,1   Stille   985,9 99 0,20 -
07:50 3,3 3,2   Stille   985,9 99 0,20 -
07:55 3,3 3,1   Stille   985,9 99 0,20 -
08:00 3,3 3,1   Stille   986,0 99 0,20 -
08:05 3,2 3,0   Stille   986,1 99 0,20 -
08:10 3,1 2,9   Stille   986,1 99 0,20 -
08:15 3,2 3,1   Stille   986,2 99 0,20 -
08:20 3,3 3,1   Stille   986,3 99 0,20 -
08:25 3,3 3,1   Stille   986,4 99 0,20 -
08:30 3,3 3,1   Stille   986,5 99 - -
08:35 3,3 3,1   Stille   986,5 99 - -
08:40 3,3 3,1 1,3 SV 3,7 986,6 99 - -
08:45 3,2 3,1   Stille   986,6 99 - -
08:50 3,2 3,1   Stille   986,7 99 - -
08:55 3,2 3,0   Stille   986,7 99 - -
09:00 3,2 3,0   Stille   986,8 99 - 5
09:05 3,2 3,1   Stille   986,8 99 - 5
09:10 3,2 3,1   Stille   986,8 99 - 9
09:15 3,0 2,8   Stille   987,0 99 - 12
09:20 3,0 2,8   Stille   987,0 99 - 12
09:25 3,1 2,9   Stille   987,1 99 - 14
09:30 2,9 2,7   Stille   987,1 99 - 14
09:35 3,1 2,9   Stille   987,2 99 - 18
09:40 3,1 2,9   Stille   987,2 99 - 18
09:45 3,1 2,9 1,0 SV 1,9 987,3 99 - 18
09:50 3,1 2,9   Stille   987,3 99 - 16
09:55 3,2 3,0 3,5 SV 5,1 987,4 99 - 11
10:00 3,3 3,2 12,7 SSV 16,9 987,4 99 0,20 11
10:05 3,5 3,3 6,0 SSV 9,3 987,4 99 0,40 18
10:10 3,6 3,4   Stille   987,4 99 0,40 37
10:15 3,6 3,4   Stille   987,5 99 0,40 51
10:20 3,6 3,4   Stille   987,5 99 0,40 46
10:25 3,6 3,4   Stille   987,5 99 0,40 53
10:30 3,7 3,6   Stille   987,4 99 0,40 63
10:35 3,8 3,7   Stille   987,4 99 0,40 51
10:40 3,9 3,8   Stille   987,5 99 0,40 44
10:45 4,0 3,8 0,6 SSV 3,7 987,5 99 0,40 51
10:50 3,9 3,8   Stille   987,6 99 0,40 58
10:55 3,9 3,7   Stille   987,7 99 0,40 72
11:00 4,1 3,9 3,7 SSV 7,4 987,6 99 0,20 74
11:05 4,2 4,1 1,8 SSV 3,7 987,7 99 - 144
11:10 4,4 4,3   Stille   987,7 99 - 141
11:15 4,5 4,3 4,2 SSV 5,6 987,7 99 - 153
11:20 4,7 4,5 4,5 SSV 5,6 987,7 99 - 179
11:25 4,7 4,5 5,3 SSV 7,4 987,7 99 - 202
11:30 4,8 4,6 6,0 SSV 9,3 987,8 99 - 190
11:35 4,8 4,6 6,0 Sør 7,4 987,8 99 - 193
11:40 4,6 4,4 5,1 SSØ 7,4 987,8 99 - 98
11:45 4,6 4,4 4,8 SSØ 6,8 987,9 99 - 93
11:50 4,4 4,2 1,1 SSØ 3,7 987,9 99 - 49
11:55 4,2 4,1 2,9 SSØ 3,7 988,0 99 - 42
12:00 4,1 3,8 4,3 SSØ 5,6 988,0 98 - 44
12:05 4,0 3,7 4,2 SSØ 5,6 988,0 98 - 162
12:10 4,5 4,2 3,1 SSØ 5,6 988,0 98 - 220
12:15 4,9 4,7 4,3 SSØ 6,8 988,0 99 - 58
12:20 4,7 4,5 5,3 SSØ 7,4 988,1 99 - 33
12:25 4,7 4,4 3,1 SSØ 5,6 988,1 98 - 44
12:30 4,7 4,4 4,2 SSØ 5,6 988,1 98 - 46
12:35 4,7 4,4 4,0 SSØ 6,8 988,2 98 - 39
12:40 4,8 4,5 5,0 SSØ 6,8 988,2 98 - 33
12:45 4,8 4,5 6,4 SSØ 7,4 988,2 98 - 44
12:50 4,8 4,6 4,3 SSØ 7,4 988,3 98 - 53
12:55 4,9 4,6 8,5 Sør 11,9 988,4 98 - 37
13:00 4,5 4,2 10,5 SSV 11,9 988,4 98 0,20 46
13:05 4,3 4,1 8,2 SSV 9,3 988,4 98 0,40 77
13:10 4,3 3,9 5,1 SSV 7,4 988,4 97 0,40 100
13:15 4,5 4,1 2,9 SSV 3,7 988,4 97 0,40 113
13:20 4,7 4,2 2,7 SSV 3,7 988,4 97 0,40 123
13:25 4,7 4,3   Stille 3,7 988,4 97 0,40 102
13:30 4,8 4,2 2,1 SSV 3,7 988,4 96 0,40 118
13:35 5,0 4,4 1,6 SSV 1,9 988,4 96 0,40 186
13:40 5,2 4,6 2,6 SSV 3,7 988,4 96 0,40 113
13:45 5,3 4,6 5,0 SSV 5,6 988,5 95 0,40 121
13:50 5,2 4,3 6,0 SSV 7,4 988,4 94 0,40 44
13:55 5,1 4,2 3,5 Sør 5,6 988,6 94 0,40 127
14:00 5,3 4,6 3,4 Sør 5,6 988,6 95 0,20 98
14:05 5,3 4,6 0,2 Sør 1,9 988,7 95 - 81
14:10 5,4 4,7 3,9 Sør 5,6 988,7 95 - 63
14:15 5,3 4,6 1,9 Sør 5,6 988,8 95 - 60
14:20 5,3 4,6 4,2 Sør 5,6 989,0 95 - 67
14:25 5,2 4,5 1,8 Sør 5,6 989,0 95 - 63
14:30 5,3 4,4 1,9 Sør 3,7 989,1 94 - 56
14:35 5,3 4,4   Stille   989,2 94 - 33
14:40 5,3 4,4 0,3 Sør 1,9 989,2 94 - 46
14:45 5,2 4,3 2,4 Sør 3,7 989,2 94 - 23
14:50 5,1 4,4 2,6 Sør 3,7 989,3 95 - 23
14:55 5,1 4,3 0,8 Sør 1,9 989,3 95 - 25
15:00 5,1 4,3 2,3 Sør 3,7 989,4 95 - 42
15:05 5,2 4,4   Stille 1,6 989,5 95 - 49
15:10 5,2 4,4 3,2 Sør 5,6 989,6 95 0,20 47
15:15 5,1 4,4 3,7 Sør 5,6 989,6 95 0,20 39
15:20 4,9 4,2 3,1 Sør 3,7 989,6 95 0,20 28
15:25 4,6 3,9   Stille 3,7 989,8 95 0,20 32
15:30 4,6 4,1   Stille   989,8 96 0,20 40
15:35 4,7 4,1   Stille   990,0 96 0,20 46
15:40 4,8 4,2   Stille   990,1 96 0,20 35
15:45 4,4 3,9   Stille   990,2 96 0,20 32
15:50 4,3 3,8 2,7 Sør 3,7 990,3 96 0,20 21
15:55 4,4 3,9   Stille   990,2 97 0,20 16
16:00 4,3 3,9   Stille   990,3 97 0,20 14
16:05 4,2 3,7   Stille   990,4 97 0,20 14
16:10 4,1 3,7   Stille   990,3 97 - 14
16:15 3,8 3,4   Stille   990,4 97 - 16
16:20 3,7 3,2 2,4 Sør 3,7 990,5 97 - 11
16:25 3,6 3,1 1,0 Sør 3,7 990,7 97 - 9
16:30 3,4 3,0 5,5 Sør 7,4 990,7 97 - 7
16:35 3,4 2,9 4,2 Sør 5,6 990,7 97 - 7
16:40 3,2 2,8 3,7 Sør 5,6 990,8 97 - 5
16:45 3,3 3,1 2,7 Sør 3,7 990,9 98 - -
16:50 2,8 2,4 3,7 Sør 5,6 991,0 97 - -
16:55 2,7 2,2 5,1 Sør 6,8 991,2 97 - -
17:00 2,9 2,6 5,5 Sør 7,4 991,1 98 - -
17:05 2,9 2,7 7,4 Sør 9,3 991,2 98 - -
17:10 3,1 2,8 5,8 Sør 7,4 991,3 98 - -
17:15 3,1 2,8 5,1 Sør 7,4 991,4 98 - -
17:20 3,2 2,9 6,4 Sør 7,4 991,4 98 - -
17:25 2,7 2,4 4,7 Sør 5,6 991,4 98 - -
17:30 2,5 2,2 4,3 Sør 5,6 991,4 98 - -
17:35 2,6 2,3 6,1 Sør 7,4 991,4 98 - -
17:40 2,3 2,0 7,1 Sør 7,4 991,4 98 - -
17:45 2,3 2,1 8,0 Sør 9,3 991,4 98 - -
17:50 2,7 2,4 9,3 Sør 10,1 991,5 98 - -
17:55 3,0 2,7 5,6 Sør 7,4 991,4 98 - -
18:00 2,9 2,6 6,0 Sør 7,4 991,5 98 - -
18:05 2,9 2,7 5,1 Sør 7,4 991,5 98 - -
18:10 2,8 2,5 3,1 Sør 3,7 991,5 98 - -
18:15 2,6 2,3 5,5 Sør 9,3 991,6 98 - -
18:20 2,0 1,7 7,1 Sør 9,3 991,6 98 - -
18:25 1,9 1,6 6,9 Sør 7,4 991,7 98 - -
18:30 2,0 1,7 9,7 Sør 10,1 991,7 98 - -
18:35 2,3 2,0 8,7 Sør 11,9 991,8 98 - -
18:40 2,8 2,6 9,7 Sør 11,1 991,8 99 - -
18:45 2,6 2,3 7,6 Sør 9,3 991,8 98 - -
18:50 2,7 2,4 7,9 Sør 9,3 991,8 98 - -
18:55 2,8 2,5 5,3 Sør 7,4 991,9 98 - -
19:00 2,9 2,6 5,8 Sør 7,4 991,9 98 - -
19:05 2,7 2,4 8,2 Sør 9,3 991,9 98 - -
19:10 2,7 2,4 5,5 Sør 9,3 991,9 98 0,20 -
19:15 2,7 2,4 5,8 Sør 8,4 991,9 98 0,20 -
19:20 2,6 2,3 6,6 Sør 7,4 992,0 98 0,20 -
19:25 2,5 2,2 7,9 Sør 10,1 992,0 98 0,20 -
19:30 2,2 1,9 5,5 Sør 7,4 992,1 98 0,20 -
19:35 2,3 2,0 5,6 Sør 7,4 992,1 98 0,20 -
19:40 2,1 1,8 6,0 SV 7,4 992,1 98 0,20 -
19:45 2,2 1,9 9,7 SSØ 10,1 992,1 98 0,20 -
19:50 2,1 1,8 5,5 SSØ 7,4 992,1 98 0,20 -
19:55 2,2 1,9 6,0 SSØ 7,4 992,2 98 0,20 -
20:00 2,1 1,8 6,4 SSØ 7,4 992,2 98 0,20 -
20:05 2,1 1,8 7,7 SSØ 9,3 992,2 98 0,20 -
20:10 2,1 1,8 4,7 SSØ 7,4 992,2 98 - -
20:15 2,1 1,8 7,1 SSØ 9,3 992,3 98 - -
20:20 2,1 1,8 6,8 SSØ 9,3 992,3 98 - -
20:25 2,1 1,8 6,4 SSØ 9,3 992,2 98 - -
20:30 1,9 1,6 6,8 SSØ 9,3 992,1 98 - -
20:35 2,0 1,7 7,6 SSØ 9,3 992,1 98 - -
20:40 2,1 1,8 7,2 SSØ 9,3 992,1 98 - -
20:45 2,1 1,8 6,1 SSØ 9,3 992,1 98 - -
20:50 2,2 1,9 7,9 SSØ 9,3 992,0 98 - -
20:55 2,3 2,0 6,0 SSØ 8,4 992,1 98 - -
21:00 2,4 2,3 9,5 SSØ 11,9 992,1 99 - -
21:05 2,6 2,3 10,3 SSØ 13,0 992,1 98 - -
21:10 2,7 2,4 7,7 SSØ 9,3 992,1 98 - -
21:15 2,8 2,6 6,8 SSØ 9,3 992,0 99 - -
21:20 2,8 2,5 6,1 SSØ 7,4 992,0 98 - -
21:25 2,8 2,5 6,8 SSØ 9,3 992,0 98 - -
21:30 2,7 2,4 5,8 SSØ 7,4 992,1 98 - -
21:35 2,7 2,4 6,8 SSØ 9,3 992,1 98 - -
21:40 2,8 2,5 7,6 Sør 9,3 992,1 98 - -
21:45 2,9 2,6 8,4 Sør 9,3 992,1 98 - -
21:50 2,9 2,7 9,8 SSØ 13,0 992,0 98 - -
21:55 2,9 2,7 12,1 SSØ 13,5 991,9 98 - -
22:00 3,1 2,8 12,9 SSØ 14,8 991,8 98 - -
22:05 3,2 2,9 14,8 SSØ 18,5 991,8 98 - -
22:10 3,2 2,9 13,8 18,5 991,8 98 - -
22:15 3,3 3,0 11,6 SSØ 16,7 991,9 98 - -
22:20 3,4 3,1 13,4 SSØ 18,5 991,9 98 0,20 -
22:25 3,4 3,2 13,7 SSØ 16,7 991,8 98 0,20 -
22:30 3,5 3,2 9,2 Sør 13,0 991,9 98 0,20 -
22:35 3,5 3,2 7,6 SSØ 9,3 991,9 98 0,40 -
22:40 3,4 3,2 4,3 Sør 5,6 992,0 98 0,40 -
Daglig sammendrag for onsdag 29 Januar 2020
Tid Temp. ( °C ) Dew pt. ( °C ) Vind ( km/h ) fra Vindkast ( km/h ) Trykk ( hPa ) Humid.( % ) Rainrate ( cm ) Sol ( W/m2 )
Max5,4 4,7 14,8 SSØ ( 334/1020 ) 18,5 992,3 99 1,00 220
Snitt3,2 2,9 3,7 Sør #64/273 5,4 987,8 98 0,60 59 #93/273
Min1,9 1,6 -   0,0 983,2 94 -  
Daglig Tabular details for onsdag 29 Januar 2020
Tid Temp. ( °C ) Dew pt. ( °C ) Vind ( km/h ) fra Vindkast ( km/h ) Trykk ( hPa ) Humid.( % ) Rainrate ( cm ) Sol ( W/m2 )
00:00 2,9 2,2 5,5 NNV 9,3 983,2 95 1,00 -
00:05 2,9 2,2 6,4 NNV 9,3 983,2 95 1,00 -
00:10 2,9 2,2 3,7 NNV 7,4 983,2 95 0,80 -
00:15 2,8 2,1 3,9 NNV 7,4 983,2 95 0,80 -
00:20 2,8 2,1 3,7 NNV 5,6 983,2 95 0,80 -
00:25 2,8 2,1 5,5 NNV 9,3 983,3 95 0,80 -
00:30 2,8 2,2 4,8 NNV 5,6 983,3 96 0,60 -
00:35 2,8 2,2 2,1 NNV 3,7 983,3 96 0,60 -
00:40 2,8 2,2 3,5 NNV 5,6 983,3 96 0,40 -
00:45 2,8 2,2 2,3 NNV 3,7 983,3 96 0,60 -
00:50 2,8 2,2 4,2 NNV 7,4 983,3 96 0,60 -
00:55 2,8 2,2 0,2 NNV 1,9 983,3 96 0,60 -
01:00 2,7 2,2 0,2 NNV 1,9 983,2 96 0,40 -
01:05 2,7 2,2   Stille   983,3 96 0,40 -
01:10 2,7 2,1   Stille   983,3 96 0,40 -
01:15 2,6 2,1 0,6 NNV 3,7 983,3 96 0,20 -
01:20 2,6 2,1 1,9 NNV 5,6 983,4 96 0,20 -
01:25 2,6 2,2 4,0 NNV 5,6 983,3 97 0,20 -
01:30 2,6 2,2 3,9 Nord 5,6 983,3 97 0,20 -
01:35 2,6 2,2 3,4 Nord 5,6 983,3 97 0,20 -
01:40 2,6 2,1 3,7 Nord 5,6 983,3 97 0,20 -
01:45 2,6 2,1 3,4 Nord 5,1 983,4 97 - -
01:50 2,6 2,2 4,5 Nord 5,6 983,4 97 - -
01:55 2,6 2,2 1,1 Nord 5,6 983,4 97 - -
02:00 2,7 2,2 2,9 Nord 3,7 983,4 97 - -
02:05 2,6 2,2 3,7 Nord 5,6 983,4 97 - -
02:10 2,4 2,0 3,9 Nord 5,6 983,4 97 - -
02:15 2,6 2,2 5,5 ØNØ 7,4 983,5 97 - -
02:20 2,6 2,2 4,2 ØNØ 5,6 983,6 97 - -
02:25 2,6 2,2 3,7 ØNØ 5,6 983,6 97 - -
02:30 2,6 2,2 2,1 ØNØ 3,7 983,7 97 - -
02:35 2,6 2,2 1,9 ØNØ 3,7 983,7 97 - -
02:40 2,6 2,2 2,9 ØNØ 5,6 983,7 97 - -
02:45 2,6 2,2 3,5 ØNØ 5,6 983,9 97 0,20 -
02:50 2,7 2,2 4,8 ØNØ 7,4 983,9 97 0,20 -
02:55 2,7 2,2 6,4 ØSØ 7,4 983,9 97 0,20 -
03:00 2,7 2,2 3,1 ØSØ 5,6 984,0 97 0,20 -
03:05 2,7 2,3 1,0 ØSØ 3,7 984,0 97 0,20 -
03:10 2,7 2,2 3,1 ØSØ 5,6 984,1 97 0,20 -
03:15 2,6 2,3 3,1 ØSØ 5,6 984,1 98 0,20 -
03:20 2,7 2,4 3,7 ØSØ 5,6 984,1 98 0,40 -
03:25 2,7 2,4 3,4 ØSØ 5,6 984,1 98 0,40 -
03:30 2,6 2,3 4,3 ØSØ 5,6 984,2 98 0,40 -
03:35 2,6 2,3 4,2 ØSØ 5,6 984,2 98 0,40 -
03:40 2,6 2,3 4,0 ØSØ 5,6 984,2 98 0,40 -
03:45 2,6 2,3 0,2 ØSØ 1,9 984,3 98 0,20 -
03:50 2,6 2,3 0,5 ØSØ 3,4 984,2 98 0,20 -
03:55 2,6 2,3 3,7 ØSØ 5,6 984,3 98 0,20 -
04:00 2,6 2,3 4,3 ØSØ 5,6 984,3 98 0,20 -
04:05 2,6 2,3   Stille   984,3 98 0,40 -
04:10 2,6 2,3 2,1 ØSØ 3,7 984,3 98 0,40 -
04:15 2,5 2,2 0,5 ØSØ 3,4 984,3 98 0,40 -
04:20 2,5 2,2   Stille   984,4 98 0,20 -
04:25 2,5 2,2 2,6 ØSØ 3,7 984,5 98 0,20 -
04:30 2,5 2,2 4,8 7,4 984,6 98 0,20 -
04:35 2,4 2,2 3,2 5,6 984,6 98 0,20 -
04:40 2,4 2,2 2,4 3,7 984,7 98 0,20 -
04:45 2,4 2,2 2,6 3,7 984,6 98 0,20 -
04:50 2,4 2,2 3,4 3,7 984,7 98 0,20 -
04:55 2,4 2,2 2,9 3,7 984,8 98 0,20 -
05:00 2,4 2,1 0,6 1,9 984,8 98 0,40 -
05:05 2,4 2,1 1,0 3,7 984,8 98 0,20 -
05:10 2,4 2,1 2,7 3,7 984,8 98 0,20 -
05:15 2,4 2,1 3,4 5,6 984,8 98 0,20 -
05:20 2,4 2,1 5,1 7,4 984,9 98 0,20 -
05:25 2,4 2,1 1,0 3,7 984,9 98 0,20 -
05:30 2,4 2,1 2,7 5,6 985,0 98 0,20 -
05:35 2,4 2,1 4,2 5,6 985,1 98 0,20 -
05:40 2,4 2,1 4,3 5,6 985,0 98 0,40 -
05:45 2,4 2,1 2,6 5,6 985,1 98 0,40 -
05:50 2,4 2,1 0,5 1,9 985,2 98 0,40 -
05:55 2,4 2,2   Stille   985,3 98 0,40 -
06:00 2,4 2,2 4,2 7,4 985,3 98 0,40 -
06:05 2,4 2,2 2,4 3,7 985,3 98 0,40 -
06:10 2,4 2,2 6,0 7,4 985,4 98 0,40 -
06:15 2,5 2,2 5,3 7,4 985,4 98 0,40 -
06:20 2,5 2,2 4,8 SSØ 7,4 985,4 98 0,40 -
06:25 2,6 2,3 4,5 SSØ 7,4 985,4 98 0,40 -
06:30 2,6 2,3 4,5 SSØ 7,4 985,4 98 0,40 -
06:35 2,6 2,3   Stille   985,5 98 0,40 -
06:40 2,6 2,3   Stille   985,5 98 0,20 -
06:45 2,6 2,3   Stille   985,6 98 0,20 -
06:50 2,6 2,3   Stille 1,6 985,6 98 0,20 -
06:55 2,5 2,2   Stille   985,6 98 0,20 -
07:00 2,7 2,4 0,2 SSØ 1,9 985,7 98 - -
07:05 2,7 2,4 0,5 SSØ 1,9 985,7 98 - -
07:10 2,7 2,6 1,4 Sør 3,7 985,7 99 - -
07:15 2,8 2,7 3,1 SSV 5,6 985,8 99 - -
07:20 3,0 2,8 3,7 SSV 7,4 985,7 99 - -
07:25 3,2 3,0 4,0 SV 5,6 985,8 99 - -
07:30 3,3 3,1 4,8 SV 8,4 985,9 99 0,20 -
07:35 3,3 3,1 1,4 SV 1,9 985,9 99 0,20 -
07:40 3,4 3,2   Stille 1,9 985,9 99 0,20 -
07:45 3,3 3,1   Stille   985,9 99 0,20 -
07:50 3,3 3,2   Stille   985,9 99 0,20 -
07:55 3,3 3,1   Stille   985,9 99 0,20 -
08:00 3,3 3,1   Stille   986,0 99 0,20 -
08:05 3,2 3,0   Stille   986,1 99 0,20 -
08:10 3,1 2,9   Stille   986,1 99 0,20 -
08:15 3,2 3,1   Stille   986,2 99 0,20 -
08:20 3,3 3,1   Stille   986,3 99 0,20 -
08:25 3,3 3,1   Stille   986,4 99 0,20 -
08:30 3,3 3,1   Stille   986,5 99 - -
08:35 3,3 3,1   Stille   986,5 99 - -
08:40 3,3 3,1 1,3 SV 3,7 986,6 99 - -
08:45 3,2 3,1   Stille   986,6 99 - -
08:50 3,2 3,1   Stille   986,7 99 - -
08:55 3,2 3,0   Stille   986,7 99 - -
09:00 3,2 3,0   Stille   986,8 99 - 5
09:05 3,2 3,1   Stille   986,8 99 - 5
09:10 3,2 3,1   Stille   986,8 99 - 9
09:15 3,0 2,8   Stille   987,0 99 - 12
09:20 3,0 2,8   Stille   987,0 99 - 12
09:25 3,1 2,9   Stille   987,1 99 - 14
09:30 2,9 2,7   Stille   987,1 99 - 14
09:35 3,1 2,9   Stille   987,2 99 - 18
09:40 3,1 2,9   Stille   987,2 99 - 18
09:45 3,1 2,9 1,0 SV 1,9 987,3 99 - 18
09:50 3,1 2,9   Stille   987,3 99 - 16
09:55 3,2 3,0 3,5 SV 5,1 987,4 99 - 11
10:00 3,3 3,2 12,7 SSV 16,9 987,4 99 0,20 11
10:05 3,5 3,3 6,0 SSV 9,3 987,4 99 0,40 18
10:10 3,6 3,4   Stille   987,4 99 0,40 37
10:15 3,6 3,4   Stille   987,5 99 0,40 51
10:20 3,6 3,4   Stille   987,5 99 0,40 46
10:25 3,6 3,4   Stille   987,5 99 0,40 53
10:30 3,7 3,6   Stille   987,4 99 0,40 63
10:35 3,8 3,7   Stille   987,4 99 0,40 51
10:40 3,9 3,8   Stille   987,5 99 0,40 44
10:45 4,0 3,8 0,6 SSV 3,7 987,5 99 0,40 51
10:50 3,9 3,8   Stille   987,6 99 0,40 58
10:55 3,9 3,7   Stille   987,7 99 0,40 72
11:00 4,1 3,9 3,7 SSV 7,4 987,6 99 0,20 74
11:05 4,2 4,1 1,8 SSV 3,7 987,7 99 - 144
11:10 4,4 4,3   Stille   987,7 99 - 141
11:15 4,5 4,3 4,2 SSV 5,6 987,7 99 - 153
11:20 4,7 4,5 4,5 SSV 5,6 987,7 99 - 179
11:25 4,7 4,5 5,3 SSV 7,4 987,7 99 - 202
11:30 4,8 4,6 6,0 SSV 9,3 987,8 99 - 190
11:35 4,8 4,6 6,0 Sør 7,4 987,8 99 - 193
11:40 4,6 4,4 5,1 SSØ 7,4 987,8 99 - 98
11:45 4,6 4,4 4,8 SSØ 6,8 987,9 99 - 93
11:50 4,4 4,2 1,1 SSØ 3,7 987,9 99 - 49
11:55 4,2 4,1 2,9 SSØ 3,7 988,0 99 - 42
12:00 4,1 3,8 4,3 SSØ 5,6 988,0 98 - 44
12:05 4,0 3,7 4,2 SSØ 5,6 988,0 98 - 162
12:10 4,5 4,2 3,1 SSØ 5,6 988,0 98 - 220
12:15 4,9 4,7 4,3 SSØ 6,8 988,0 99 - 58
12:20 4,7 4,5 5,3 SSØ 7,4 988,1 99 - 33
12:25 4,7 4,4 3,1 SSØ 5,6 988,1 98 - 44
12:30 4,7 4,4 4,2 SSØ 5,6 988,1 98 - 46
12:35 4,7 4,4 4,0 SSØ 6,8 988,2 98 - 39
12:40 4,8 4,5 5,0 SSØ 6,8 988,2 98 - 33
12:45 4,8 4,5 6,4 SSØ 7,4 988,2 98 - 44
12:50 4,8 4,6 4,3 SSØ 7,4 988,3 98 - 53
12:55 4,9 4,6 8,5 Sør 11,9 988,4 98 - 37
13:00 4,5 4,2 10,5 SSV 11,9 988,4 98 0,20 46
13:05 4,3 4,1 8,2 SSV 9,3 988,4 98 0,40 77
13:10 4,3 3,9 5,1 SSV 7,4 988,4 97 0,40 100
13:15 4,5 4,1 2,9 SSV 3,7 988,4 97 0,40 113
13:20 4,7 4,2 2,7 SSV 3,7 988,4 97 0,40 123
13:25 4,7 4,3   Stille 3,7 988,4 97 0,40 102
13:30 4,8 4,2 2,1 SSV 3,7 988,4 96 0,40 118
13:35 5,0 4,4 1,6 SSV 1,9 988,4 96 0,40 186
13:40 5,2 4,6 2,6 SSV 3,7 988,4 96 0,40 113
13:45 5,3 4,6 5,0 SSV 5,6 988,5 95 0,40 121
13:50 5,2 4,3 6,0 SSV 7,4 988,4 94 0,40 44
13:55 5,1 4,2 3,5 Sør 5,6 988,6 94 0,40 127
14:00 5,3 4,6 3,4 Sør 5,6 988,6 95 0,20 98
14:05 5,3 4,6 0,2 Sør 1,9 988,7 95 - 81
14:10 5,4 4,7 3,9 Sør 5,6 988,7 95 - 63
14:15 5,3 4,6 1,9 Sør 5,6 988,8 95 - 60
14:20 5,3 4,6 4,2 Sør 5,6 989,0 95 - 67
14:25 5,2 4,5 1,8 Sør 5,6 989,0 95 - 63
14:30 5,3 4,4 1,9 Sør 3,7 989,1 94 - 56
14:35 5,3 4,4   Stille   989,2 94 - 33
14:40 5,3 4,4 0,3 Sør 1,9 989,2 94 - 46
14:45 5,2 4,3 2,4 Sør 3,7 989,2 94 - 23
14:50 5,1 4,4 2,6 Sør 3,7 989,3 95 - 23
14:55 5,1 4,3 0,8 Sør 1,9 989,3 95 - 25
15:00 5,1 4,3 2,3 Sør 3,7 989,4 95 - 42
15:05 5,2 4,4   Stille 1,6 989,5 95 - 49
15:10 5,2 4,4 3,2 Sør 5,6 989,6 95 0,20 47
15:15 5,1 4,4 3,7 Sør 5,6 989,6 95 0,20 39
15:20 4,9 4,2 3,1 Sør 3,7 989,6 95 0,20 28
15:25 4,6 3,9   Stille 3,7 989,8 95 0,20 32
15:30 4,6 4,1   Stille   989,8 96 0,20 40
15:35 4,7 4,1   Stille   990,0 96 0,20 46
15:40 4,8 4,2   Stille   990,1 96 0,20 35
15:45 4,4 3,9   Stille   990,2 96 0,20 32
15:50 4,3 3,8 2,7 Sør 3,7 990,3 96 0,20 21
15:55 4,4 3,9   Stille   990,2 97 0,20 16
16:00 4,3 3,9   Stille   990,3 97 0,20 14
16:05 4,2 3,7   Stille   990,4 97 0,20 14
16:10 4,1 3,7   Stille   990,3 97 - 14
16:15 3,8 3,4   Stille   990,4 97 - 16
16:20 3,7 3,2 2,4 Sør 3,7 990,5 97 - 11
16:25 3,6 3,1 1,0 Sør 3,7 990,7 97 - 9
16:30 3,4 3,0 5,5 Sør 7,4 990,7 97 - 7
16:35 3,4 2,9 4,2 Sør 5,6 990,7 97 - 7
16:40 3,2 2,8 3,7 Sør 5,6 990,8 97 - 5
16:45 3,3 3,1 2,7 Sør 3,7 990,9 98 - -
16:50 2,8 2,4 3,7 Sør 5,6 991,0 97 - -
16:55 2,7 2,2 5,1 Sør 6,8 991,2 97 - -
17:00 2,9 2,6 5,5 Sør 7,4 991,1 98 - -
17:05 2,9 2,7 7,4 Sør 9,3 991,2 98 - -
17:10 3,1 2,8 5,8 Sør 7,4 991,3 98 - -
17:15 3,1 2,8 5,1 Sør 7,4 991,4 98 - -
17:20 3,2 2,9 6,4 Sør 7,4 991,4 98 - -
17:25 2,7 2,4 4,7 Sør 5,6 991,4 98 - -
17:30 2,5 2,2 4,3 Sør 5,6 991,4 98 - -
17:35 2,6 2,3 6,1 Sør 7,4 991,4 98 - -
17:40 2,3 2,0 7,1 Sør 7,4 991,4 98 - -
17:45 2,3 2,1 8,0 Sør 9,3 991,4 98 - -
17:50 2,7 2,4 9,3 Sør 10,1 991,5 98 - -
17:55 3,0 2,7 5,6 Sør 7,4 991,4 98 - -
18:00 2,9 2,6 6,0 Sør 7,4 991,5 98 - -
18:05 2,9 2,7 5,1 Sør 7,4 991,5 98 - -
18:10 2,8 2,5 3,1 Sør 3,7 991,5 98 - -
18:15 2,6 2,3 5,5 Sør 9,3 991,6 98 - -
18:20 2,0 1,7 7,1 Sør 9,3 991,6 98 - -
18:25 1,9 1,6 6,9 Sør 7,4 991,7 98 - -
18:30 2,0 1,7 9,7 Sør 10,1 991,7 98 - -
18:35 2,3 2,0 8,7 Sør 11,9 991,8 98 - -
18:40 2,8 2,6 9,7 Sør 11,1 991,8 99 - -
18:45 2,6 2,3 7,6 Sør 9,3 991,8 98 - -
18:50 2,7 2,4 7,9 Sør 9,3 991,8 98 - -
18:55 2,8 2,5 5,3 Sør 7,4 991,9 98 - -
19:00 2,9 2,6 5,8 Sør 7,4 991,9 98 - -
19:05 2,7 2,4 8,2 Sør 9,3 991,9 98 - -
19:10 2,7 2,4 5,5 Sør 9,3 991,9 98 0,20 -
19:15 2,7 2,4 5,8 Sør 8,4 991,9 98 0,20 -
19:20 2,6 2,3 6,6 Sør 7,4 992,0 98 0,20 -
19:25 2,5 2,2 7,9 Sør 10,1 992,0 98 0,20 -
19:30 2,2 1,9 5,5 Sør 7,4 992,1 98 0,20 -
19:35 2,3 2,0 5,6 Sør 7,4 992,1 98 0,20 -
19:40 2,1 1,8 6,0 SV 7,4 992,1 98 0,20 -
19:45 2,2 1,9 9,7 SSØ 10,1 992,1 98 0,20 -
19:50 2,1 1,8 5,5 SSØ 7,4 992,1 98 0,20 -
19:55 2,2 1,9 6,0 SSØ 7,4 992,2 98 0,20 -
20:00 2,1 1,8 6,4 SSØ 7,4 992,2 98 0,20 -
20:05 2,1 1,8 7,7 SSØ 9,3 992,2 98 0,20 -
20:10 2,1 1,8 4,7 SSØ 7,4 992,2 98 - -
20:15 2,1 1,8 7,1 SSØ 9,3 992,3 98 - -
20:20 2,1 1,8 6,8 SSØ 9,3 992,3 98 - -
20:25 2,1 1,8 6,4 SSØ 9,3 992,2 98 - -
20:30 1,9 1,6 6,8 SSØ 9,3 992,1 98 - -
20:35 2,0 1,7 7,6 SSØ 9,3 992,1 98 - -
20:40 2,1 1,8 7,2 SSØ 9,3 992,1 98 - -
20:45 2,1 1,8 6,1 SSØ 9,3 992,1 98 - -
20:50 2,2 1,9 7,9 SSØ 9,3 992,0 98 - -
20:55 2,3 2,0 6,0 SSØ 8,4 992,1 98 - -
21:00 2,4 2,3 9,5 SSØ 11,9 992,1 99 - -
21:05 2,6 2,3 10,3 SSØ 13,0 992,1 98 - -
21:10 2,7 2,4 7,7 SSØ 9,3 992,1 98 - -
21:15 2,8 2,6 6,8 SSØ 9,3 992,0 99 - -
21:20 2,8 2,5 6,1 SSØ 7,4 992,0 98 - -
21:25 2,8 2,5 6,8 SSØ 9,3 992,0 98 - -
21:30 2,7 2,4 5,8 SSØ 7,4 992,1 98 - -
21:35 2,7 2,4 6,8 SSØ 9,3 992,1 98 - -
21:40 2,8 2,5 7,6 Sør 9,3 992,1 98 - -
21:45 2,9 2,6 8,4 Sør 9,3 992,1 98 - -
21:50 2,9 2,7 9,8 SSØ 13,0 992,0 98 - -
21:55 2,9 2,7 12,1 SSØ 13,5 991,9 98 - -
22:00 3,1 2,8 12,9 SSØ 14,8 991,8 98 - -
22:05 3,2 2,9 14,8 SSØ 18,5 991,8 98 - -
22:10 3,2 2,9 13,8 18,5 991,8 98 - -
22:15 3,3 3,0 11,6 SSØ 16,7 991,9 98 - -
22:20 3,4 3,1 13,4 SSØ 18,5 991,9 98 0,20 -
22:25 3,4 3,2 13,7 SSØ 16,7 991,8 98 0,20 -
22:30 3,5 3,2 9,2 Sør 13,0 991,9 98 0,20 -
22:35 3,5 3,2 7,6 SSØ 9,3 991,9 98 0,40 -
22:40 3,4 3,2 4,3 Sør 5,6 992,0 98 0,40 -

Download your copy of this data-set  here

Our weather-data as stored at Weather Underground. Script utviklet av Jim McMurry. Tilrettelagt for malen av Leuven-Template.eu

Du finner vår vær info også på:

UK Metoffice

European Weather Network

WeatherCloud

Weather Underground

Utstyr vi bruker:

Værstsjon
Davis VP2

Værprogram
Weather Display

Davis VP2

Weather Display